Terminal Aerodrome Forecast
Issued by NWS Bismarck, ND

Home | Current Version | Previous Version | Text Only | Print | Product List | Glossary Off
Versions: 1 2 3 4 5 6 7 8 9 10 11 12 13 14 15 16 17 18

000
FTUS43 KBIS 040530
TAFISN
TAF
KISN 040530Z 0406/0506 10005KT P6SM SKC
     FM041700 12012KT P6SM FEW080 SCT150 SCT250
     FM050300 12008KT P6SM VCTS SCT050CB BKN100 OVC250=

USA.gov is the U.S. government's official web portal to all federal, state and local government web resources and services.